Time;durP1;ratioP1;P1;durP2;ratioP2;P2;SDS_P1;SDS_P2;PMS_P1;PMS_P2;Temp;Humidity;BMP_temperature;BMP_pressure;BME280_temperature;BME280_humidity;BME280_pressure;Samples;Min_cycle;Max_cycle;Signal;HPM_P1;HPM_P2
2023/04/29 00:01:25;;;;;;;17.55;13.55;;;12.20;99.90;;;;;;5013941;28;20179;-88
2023/04/29 00:03:52;;;;;;;21.55;13.98;;;12.30;99.90;;;;;;5013428;28;20214;-88
2023/04/29 00:06:17;;;;;;;17.73;12.38;;;12.30;99.90;;;;;;5013739;28;20178;-86
2023/04/29 00:08:43;;;;;;;18.55;13.40;;;12.30;99.90;;;;;;5014672;28;20175;-87
2023/04/29 00:11:10;;;;;;;17.02;12.48;;;12.30;99.90;;;;;;5013336;28;20183;-88
2023/04/29 00:13:36;;;;;;;17.58;13.15;;;12.30;99.90;;;;;;5013283;28;20180;-88
2023/04/29 00:16:01;;;;;;;16.67;12.88;;;12.30;99.90;;;;;;5013343;28;20187;-89
2023/04/29 00:18:27;;;;;;;16.15;12.63;;;12.30;99.90;;;;;;5013647;28;20179;-89
2023/04/29 00:20:53;;;;;;;14.95;11.52;;;12.30;99.90;;;;;;5014612;28;20179;-89
2023/04/29 00:23:18;;;;;;;15.43;12.40;;;12.20;99.90;;;;;;5012817;28;20321;-87
2023/04/29 00:25:44;;;;;;;16.42;12.40;;;12.20;99.90;;;;;;5013934;28;20179;-88
2023/04/29 00:28:10;;;;;;;17.65;13.00;;;12.30;99.90;;;;;;5013890;28;20155;-86
2023/04/29 00:30:36;;;;;;;19.63;12.90;;;12.30;99.90;;;;;;5014011;28;20183;-86
2023/04/29 00:33:01;;;;;;;17.58;12.95;;;12.30;99.90;;;;;;5014124;28;20201;-86
2023/04/29 00:35:27;;;;;;;20.90;14.07;;;12.30;99.90;;;;;;5012963;28;20232;-86
2023/04/29 00:37:53;;;;;;;19.55;13.50;;;12.30;99.90;;;;;;5012868;28;20230;-88
2023/04/29 00:40:19;;;;;;;20.73;14.27;;;12.20;99.90;;;;;;5013015;28;20229;-89
2023/04/29 00:42:44;;;;;;;19.95;13.57;;;12.20;99.90;;;;;;5012759;28;20634;-88
2023/04/29 00:45:11;;;;;;;21.75;15.50;;;12.20;99.90;;;;;;5013676;28;20183;-87
2023/04/29 00:47:37;;;;;;;20.90;14.00;;;12.20;99.90;;;;;;5013911;28;20172;-86
2023/04/29 00:50:07;;;;;;;21.10;13.82;;;12.20;99.90;;;;;;5013819;28;20633;-89
2023/04/29 00:52:33;;;;;;;21.17;14.82;;;12.20;99.90;;;;;;5343772;23;21247;-84
2023/04/29 00:55:00;;;;;;;18.70;13.40;;;12.10;99.90;;;;;;5010138;28;20226;-85
2023/04/29 00:57:29;;;;;;;21.40;13.70;;;12.10;99.90;;;;;;5012772;28;20187;-87
2023/04/29 00:59:58;;;;;;;23.88;14.93;;;12.10;99.90;;;;;;5015330;28;20265;-87
2023/04/29 01:02:25;;;;;;;22.80;15.32;;;12.10;99.90;;;;;;5017339;28;20230;-84
2023/04/29 01:04:51;;;;;;;22.88;15.23;;;12.10;99.90;;;;;;5015530;28;20495;-84
2023/04/29 01:07:33;;;;;;;23.38;15.98;;;12.10;99.90;;;;;;5016075;28;20179;-85
2023/04/29 01:10:06;;;;;;;21.67;15.80;;;12.20;99.90;;;;;;5015401;28;20175;-85
2023/04/29 01:12:45;;;;;;;22.80;16.23;;;12.20;99.90;;;;;;5016946;28;20187;-83
2023/04/29 01:15:22;;;;;;;24.20;16.13;;;12.20;99.90;;;;;;5016025;28;20237;-85
2023/04/29 01:18:03;;;;;;;23.50;16.48;;;12.20;99.90;;;;;;5015997;28;20266;-86
2023/04/29 01:20:31;;;;;;;28.13;17.25;;;12.20;99.90;;;;;;5016759;28;20183;-84
2023/04/29 01:22:57;;;;;;;29.15;17.95;;;12.20;99.90;;;;;;5015945;28;20176;-83
2023/04/29 01:25:23;;;;;;;28.00;18.00;;;12.20;99.90;;;;;;5016510;28;20629;-85
2023/04/29 01:28:13;;;;;;;26.63;17.75;;;12.10;99.90;;;;;;5015502;28;20179;-85
2023/04/29 01:30:50;;;;;;;25.50;17.45;;;12.10;99.90;;;;;;5016701;28;20167;-85
2023/04/29 01:33:46;;;;;;;28.42;18.23;;;12.10;99.90;;;;;;5015329;28;20516;-85
2023/04/29 01:36:25;;;;;;;29.88;19.10;;;12.00;99.90;;;;;;5016641;28;20183;-86
2023/04/29 01:39:31;;;;;;;29.85;19.60;;;12.00;99.90;;;;;;5012245;28;20498;-85
2023/04/29 01:42:20;;;;;;;34.30;20.25;;;12.10;99.90;;;;;;5012097;28;20184;-85
2023/04/29 01:44:48;;;;;;;31.33;19.92;;;12.20;99.90;;;;;;5012049;28;20243;-84
2023/04/29 01:47:14;;;;;;;34.55;21.33;;;12.10;99.90;;;;;;4995693;28;20606;-83
2023/04/29 01:49:40;;;;;;;36.92;21.08;;;12.10;99.90;;;;;;4995501;28;20198;-84
2023/04/29 01:52:06;;;;;;;36.33;21.02;;;12.00;99.90;;;;;;4995133;28;20587;-85
2023/04/29 01:54:35;;;;;;;34.80;20.48;;;12.10;99.90;;;;;;4994931;28;20267;-85
2023/04/29 01:57:01;;;;;;;40.65;22.73;;;12.00;99.90;;;;;;5011624;28;20184;-86
2023/04/29 01:59:27;;;;;;;38.40;21.45;;;11.90;99.90;;;;;;4996353;28;20598;-85
2023/04/29 02:01:55;;;;;;;37.38;22.10;;;12.00;99.90;;;;;;5011311;28;20568;-83
2023/04/29 02:04:28;;;;;;;40.47;22.77;;;12.00;99.90;;;;;;4995971;28;20199;-85
2023/04/29 02:06:53;;;;;;;42.80;22.33;;;11.90;99.90;;;;;;5011948;28;20606;-86
2023/04/29 02:09:19;;;;;;;45.35;23.95;;;11.90;99.90;;;;;;5013939;28;20214;-86
2023/04/29 02:11:45;;;;;;;41.92;22.83;;;11.90;99.90;;;;;;5015092;28;20180;-85
2023/04/29 02:14:11;;;;;;;40.20;22.00;;;12.00;99.90;;;;;;5014674;28;20282;-86
2023/04/29 02:16:37;;;;;;;41.08;21.75;;;11.90;99.90;;;;;;5016146;28;20518;-85
2023/04/29 02:19:03;;;;;;;40.63;21.95;;;11.90;99.90;;;;;;5015042;28;20186;-85
2023/04/29 02:21:28;;;;;;;40.88;22.30;;;11.90;99.90;;;;;;5016371;28;20168;-85
2023/04/29 02:23:54;;;;;;;38.83;22.10;;;12.00;99.90;;;;;;5014736;28;20670;-87
2023/04/29 02:26:20;;;;;;;36.13;21.10;;;12.00;99.90;;;;;;5015145;28;20179;-87
2023/04/29 02:28:46;;;;;;;36.45;20.83;;;11.90;99.90;;;;;;5015189;28;20233;-86
2023/04/29 02:31:12;;;;;;;39.10;20.48;;;11.90;99.90;;;;;;5014910;28;20274;-88
2023/04/29 02:33:38;;;;;;;35.42;20.45;;;11.80;99.90;;;;;;5015098;28;20189;-88
2023/04/29 02:36:05;;;;;;;33.47;20.52;;;11.80;99.90;;;;;;5015104;28;20171;-88
2023/04/29 02:38:31;;;;;;;29.60;19.65;;;11.80;99.90;;;;;;5014619;28;20241;-86
2023/04/29 02:40:57;;;;;;;30.17;19.85;;;11.80;99.90;;;;;;5014982;28;20176;-88
2023/04/29 02:43:22;;;;;;;31.15;19.83;;;11.70;99.90;;;;;;5014079;28;20613;-88
2023/04/29 02:45:48;;;;;;;27.88;19.75;;;11.80;99.90;;;;;;5014517;28;20229;-88
2023/04/29 02:48:14;;;;;;;30.20;19.15;;;11.70;99.90;;;;;;5015104;28;20206;-87
2023/04/29 02:50:40;;;;;;;28.45;18.95;;;11.70;99.90;;;;;;5014844;28;20209;-88
2023/04/29 02:53:06;;;;;;;30.20;19.20;;;11.70;99.90;;;;;;5015429;28;20229;-87
2023/04/29 02:55:40;;;;;;;29.38;19.50;;;11.70;99.90;;;;;;5014545;28;20193;-84
2023/04/29 02:58:05;;;;;;;29.70;19.40;;;11.70;99.90;;;;;;5014677;28;20270;-87
2023/04/29 03:00:31;;;;;;;30.25;19.73;;;11.70;99.90;;;;;;5014575;28;20266;-87
2023/04/29 03:02:57;;;;;;;29.20;19.00;;;11.60;99.90;;;;;;5015560;28;20225;-86
2023/04/29 03:05:22;;;;;;;31.25;20.25;;;11.60;99.90;;;;;;5014556;28;20614;-85
2023/04/29 03:07:48;;;;;;;29.30;19.02;;;11.60;99.90;;;;;;5014387;28;20194;-86
2023/04/29 03:10:14;;;;;;;32.15;19.13;;;11.60;99.90;;;;;;5013898;28;20183;-85
2023/04/29 03:12:39;;;;;;;29.33;18.98;;;11.50;99.90;;;;;;5014089;28;20519;-84
2023/04/29 03:15:07;;;;;;;30.33;18.17;;;11.50;99.90;;;;;;5014151;28;20183;-86
2023/04/29 03:17:33;;;;;;;27.48;18.90;;;11.40;99.90;;;;;;5015539;28;20556;-86
2023/04/29 03:19:59;;;;;;;30.50;19.55;;;11.40;99.90;;;;;;5013947;28;20214;-86
2023/04/29 03:22:25;;;;;;;28.08;18.05;;;11.40;99.90;;;;;;5014370;28;20199;-86
2023/04/29 03:24:51;;;;;;;24.58;16.83;;;11.40;99.90;;;;;;5013629;28;20305;-85
2023/04/29 03:27:16;;;;;;;28.42;17.90;;;11.30;99.90;;;;;;5014041;28;20559;-85
2023/04/29 03:29:42;;;;;;;27.27;17.70;;;11.30;99.90;;;;;;5015135;28;20175;-85
2023/04/29 03:32:08;;;;;;;25.83;17.25;;;11.30;99.90;;;;;;5013832;28;20225;-85
2023/04/29 03:34:33;;;;;;;25.33;17.25;;;11.30;99.90;;;;;;5013776;28;20179;-86
2023/04/29 03:37:00;;;;;;;24.52;17.20;;;11.30;99.90;;;;;;5013455;28;20175;-85
2023/04/29 03:39:31;;;;;;;31.85;16.90;;;11.30;99.90;;;;;;5013366;28;20178;-86
2023/04/29 03:41:57;;;;;;;25.38;17.70;;;11.30;99.90;;;;;;5013469;28;20174;-85
2023/04/29 03:44:22;;;;;;;24.55;17.25;;;11.20;99.90;;;;;;5014772;28;20552;-86
2023/04/29 03:46:49;;;;;;;25.05;17.38;;;11.20;99.90;;;;;;5013977;28;20179;-85
2023/04/29 03:49:15;;;;;;;28.08;18.98;;;11.20;99.90;;;;;;5013567;28;20185;-85
2023/04/29 03:51:41;;;;;;;26.02;17.58;;;11.10;99.90;;;;;;5013467;28;20538;-86
2023/04/29 03:54:08;;;;;;;24.23;18.25;;;11.10;99.90;;;;;;5013372;28;20754;-86
2023/04/29 03:56:35;;;;;;;25.55;18.40;;;11.00;99.90;;;;;;5014946;28;20163;-86
2023/04/29 03:59:01;;;;;;;25.33;17.55;;;10.90;99.90;;;;;;5013852;28;20175;-84
2023/04/29 04:01:26;;;;;;;26.90;17.75;;;10.90;99.90;;;;;;5013648;28;20181;-85
2023/04/29 04:03:52;;;;;;;22.35;16.17;;;10.80;99.90;;;;;;5013087;28;20289;-84
2023/04/29 04:06:18;;;;;;;22.63;15.82;;;10.70;99.90;;;;;;5014558;28;20171;-85
2023/04/29 04:08:43;;;;;;;19.58;14.80;;;10.60;99.90;;;;;;5013200;28;20187;-85
2023/04/29 04:11:09;;;;;;;22.20;15.02;;;10.60;99.90;;;;;;5013311;28;20182;-84
2023/04/29 04:13:35;;;;;;;20.17;13.68;;;10.60;99.90;;;;;;5013150;28;20190;-85
2023/04/29 04:16:02;;;;;;;19.00;13.25;;;10.50;99.90;;;;;;5013373;28;20478;-86
2023/04/29 04:18:28;;;;;;;19.20;15.02;;;10.50;99.90;;;;;;5013338;28;20167;-87
2023/04/29 04:20:53;;;;;;;20.52;15.02;;;10.50;99.90;;;;;;5012947;28;20199;-85
2023/04/29 04:23:19;;;;;;;18.85;14.32;;;10.40;99.90;;;;;;5014017;28;20541;-84
2023/04/29 04:25:49;;;;;;;19.80;14.48;;;10.40;99.90;;;;;;5012801;28;20190;-84
2023/04/29 04:28:15;;;;;;;22.10;16.25;;;10.40;99.90;;;;;;5013232;28;20225;-84
2023/04/29 04:30:41;;;;;;;24.98;17.38;;;10.40;99.90;;;;;;5013119;28;20179;-85
2023/04/29 04:33:09;;;;;;;25.27;17.75;;;10.30;99.90;;;;;;5014512;28;20261;-83
2023/04/29 04:35:35;;;;;;;25.95;17.92;;;10.30;99.90;;;;;;5016919;28;20187;-85
2023/04/29 04:38:00;;;;;;;28.70;19.00;;;10.30;99.90;;;;;;5016970;28;20234;-84
2023/04/29 04:40:26;;;;;;;25.88;18.88;;;10.30;99.90;;;;;;5016536;28;20179;-85
2023/04/29 04:42:52;;;;;;;27.42;19.40;;;10.30;99.90;;;;;;4999438;28;20234;-85
2023/04/29 04:45:18;;;;;;;28.70;19.88;;;10.30;99.90;;;;;;5005329;28;20219;-85
2023/04/29 04:47:43;;;;;;;33.67;19.13;;;10.20;99.90;;;;;;5016293;28;20207;-85
2023/04/29 04:50:09;;;;;;;28.02;19.65;;;10.20;99.90;;;;;;5010976;28;20575;-84
2023/04/29 04:52:35;;;;;;;31.60;20.73;;;10.30;99.90;;;;;;5010685;28;20182;-83
2023/04/29 04:55:01;;;;;;;28.40;19.27;;;10.20;99.90;;;;;;5016165;28;20187;-84
2023/04/29 04:57:27;;;;;;;27.25;18.55;;;10.20;99.90;;;;;;5016467;28;20183;-85
2023/04/29 04:59:52;;;;;;;19.13;12.63;;;10.20;99.90;;;;;;5016400;28;20190;-85
2023/04/29 05:02:18;;;;;;;16.67;11.68;;;10.10;99.90;;;;;;5016442;28;20517;-84
2023/04/29 05:04:43;;;;;;;11.25;9.40;;;10.10;99.90;;;;;;5015983;28;20218;-85
2023/04/29 05:07:09;;;;;;;11.25;8.48;;;10.10;99.90;;;;;;5008285;28;20633;-85
2023/04/29 05:09:36;;;;;;;11.75;8.43;;;10.00;99.90;;;;;;5001401;28;20191;-84
2023/04/29 05:12:02;;;;;;;9.80;8.27;;;9.90;99.90;;;;;;4998806;28;20271;-84
2023/04/29 05:14:28;;;;;;;10.70;8.52;;;9.80;99.90;;;;;;5010502;28;20175;-85
2023/04/29 05:16:58;;;;;;;10.80;8.60;;;9.80;99.90;;;;;;5001937;28;20319;-83
2023/04/29 05:19:24;;;;;;;11.27;8.27;;;9.80;99.90;;;;;;4996397;28;20258;-84
2023/04/29 05:21:50;;;;;;;10.20;7.65;;;9.80;99.90;;;;;;4996929;28;20602;-85
2023/04/29 05:24:16;;;;;;;9.63;7.97;;;9.80;99.90;;;;;;5012408;28;20220;-86
2023/04/29 05:26:42;;;;;;;9.00;7.47;;;9.90;99.90;;;;;;5012418;28;20194;-84
2023/04/29 05:29:09;;;;;;;8.73;7.82;;;9.90;99.90;;;;;;5012591;28;20184;-84
2023/04/29 05:31:35;;;;;;;8.73;7.35;;;9.90;99.90;;;;;;5012555;28;20188;-84
2023/04/29 05:34:01;;;;;;;9.73;7.50;;;9.90;99.90;;;;;;4997447;28;20230;-84
2023/04/29 05:36:27;;;;;;;8.88;7.97;;;9.90;99.90;;;;;;5012508;28;20184;-83
2023/04/29 05:38:53;;;;;;;9.23;6.82;;;9.80;99.90;;;;;;5002666;28;20526;-83
2023/04/29 05:41:20;;;;;;;9.50;7.07;;;9.90;99.90;;;;;;4998958;28;20176;-84
2023/04/29 05:43:45;;;;;;;10.13;7.82;;;9.80;99.90;;;;;;4994838;28;20216;-84
2023/04/29 05:46:11;;;;;;;13.18;8.38;;;9.80;99.90;;;;;;4996256;28;20175;-83
2023/04/29 05:48:37;;;;;;;11.25;8.80;;;9.80;99.90;;;;;;4995423;28;20697;-82
2023/04/29 05:51:03;;;;;;;12.13;9.15;;;9.80;99.90;;;;;;4994991;28;20565;-83
2023/04/29 05:53:30;;;;;;;10.38;8.40;;;9.80;99.90;;;;;;5011909;28;20747;-83
2023/04/29 05:55:56;;;;;;;10.93;8.75;;;9.70;99.90;;;;;;5011594;28;20236;-82
2023/04/29 05:58:21;;;;;;;13.40;9.75;;;9.70;99.90;;;;;;5014726;28;20179;-84
2023/04/29 06:00:48;;;;;;;12.90;9.60;;;9.60;99.90;;;;;;5014688;28;20500;-83
2023/04/29 06:03:14;;;;;;;13.63;8.43;;;9.70;99.90;;;;;;5014280;28;20214;-83
2023/04/29 06:05:40;;;;;;;11.53;8.43;;;9.70;99.90;;;;;;5013788;28;20183;-84
2023/04/29 06:08:06;;;;;;;10.95;8.68;;;9.70;99.90;;;;;;5015915;28;20175;-85
2023/04/29 06:10:32;;;;;;;10.55;8.40;;;9.70;99.90;;;;;;5014490;28;20195;-84
2023/04/29 06:12:58;;;;;;;12.52;8.18;;;9.80;99.90;;;;;;5015540;28;20175;-84
2023/04/29 06:15:24;;;;;;;12.48;8.52;;;9.70;99.90;;;;;;5014399;28;20237;-83
2023/04/29 06:17:51;;;;;;;13.52;8.45;;;9.70;99.90;;;;;;5014316;28;20183;-83
2023/04/29 06:20:17;;;;;;;12.65;8.30;;;9.70;99.90;;;;;;5014038;28;20183;-84
2023/04/29 06:22:42;;;;;;;10.23;8.40;;;9.70;99.90;;;;;;5015265;28;20599;-84
2023/04/29 06:25:08;;;;;;;13.73;8.73;;;9.80;99.90;;;;;;5013923;28;20215;-82
2023/04/29 06:27:34;;;;;;;11.95;8.80;;;9.80;99.90;;;;;;5014468;28;20179;-83
2023/04/29 06:30:00;;;;;;;11.00;7.97;;;9.70;99.90;;;;;;5014033;28;20240;-83
2023/04/29 06:32:26;;;;;;;14.55;9.95;;;9.80;99.90;;;;;;5013047;28;20187;-84
2023/04/29 06:34:51;;;;;;;12.65;9.35;;;9.70;99.90;;;;;;5013812;28;20191;-83
2023/04/29 06:37:18;;;;;;;14.15;10.15;;;9.80;99.90;;;;;;5007690;28;20741;-83
2023/04/29 06:39:45;;;;;;;13.55;10.43;;;9.70;99.90;;;;;;5003442;28;20198;-85
2023/04/29 06:42:10;;;;;;;14.23;10.73;;;9.70;99.90;;;;;;5007954;28;20265;-83
2023/04/29 06:44:36;;;;;;;14.23;10.82;;;9.70;99.90;;;;;;5013380;28;20269;-83
2023/04/29 06:47:02;;;;;;;17.63;11.95;;;9.70;99.90;;;;;;5010720;28;20637;-83
2023/04/29 06:49:28;;;;;;;16.08;12.15;;;9.70;99.90;;;;;;5003902;28;20175;-83
2023/04/29 06:51:53;;;;;;;14.90;10.40;;;9.70;99.90;;;;;;5013179;28;20253;-83
2023/04/29 06:54:19;;;;;;;15.35;11.55;;;9.70;99.90;;;;;;5012811;28;20230;-82
2023/04/29 06:56:46;;;;;;;16.48;11.43;;;9.80;99.90;;;;;;5012369;28;20187;-83
2023/04/29 06:59:11;;;;;;;15.18;11.18;;;9.90;99.90;;;;;;5013234;28;20677;-83
2023/04/29 07:01:37;;;;;;;15.30;10.57;;;9.90;99.90;;;;;;5012683;28;20187;-84
2023/04/29 07:04:04;;;;;;;14.38;11.43;;;9.90;99.90;;;;;;5013392;28;20257;-84
2023/04/29 07:06:29;;;;;;;14.02;11.38;;;10.00;99.90;;;;;;5013260;28;20675;-83
2023/04/29 07:08:57;;;;;;;15.68;11.75;;;10.00;99.90;;;;;;5012530;28;20276;-84
2023/04/29 07:11:23;;;;;;;14.90;11.43;;;10.10;99.90;;;;;;5011012;28;20179;-83
2023/04/29 07:13:52;;;;;;;18.65;12.60;;;10.20;99.90;;;;;;5011542;28;20194;-83
2023/04/29 07:16:20;;;;;;;15.52;11.50;;;10.20;99.90;;;;;;5012037;28;20194;-83
2023/04/29 07:18:47;;;;;;;19.63;12.82;;;10.20;99.90;;;;;;5014105;28;20254;-83
2023/04/29 07:21:12;;;;;;;18.23;13.07;;;10.20;99.90;;;;;;5013224;28;20614;-84
2023/04/29 07:23:39;;;;;;;17.27;12.80;;;10.20;99.90;;;;;;5014255;28;20231;-83
2023/04/29 07:26:10;;;;;;;16.40;12.38;;;10.20;99.90;;;;;;5012935;28;20175;-83
2023/04/29 07:28:35;;;;;;;16.85;12.75;;;10.30;99.90;;;;;;5013448;28;20568;-83
2023/04/29 07:31:01;;;;;;;15.95;12.25;;;10.30;99.90;;;;;;5012974;28;20167;-83
2023/04/29 07:33:27;;;;;;;16.52;13.05;;;10.40;99.90;;;;;;5014006;28;20195;-82
2023/04/29 07:35:53;;;;;;;16.95;12.35;;;10.50;99.90;;;;;;5012842;28;20218;-83
2023/04/29 07:38:20;;;;;;;17.27;12.63;;;10.40;99.90;;;;;;5012961;28;20181;-84
2023/04/29 07:40:46;;;;;;;16.73;12.82;;;10.40;99.90;;;;;;5012899;28;20187;-83
2023/04/29 07:43:11;;;;;;;14.23;11.60;;;10.40;99.90;;;;;;5013398;28;20610;-84
2023/04/29 07:45:38;;;;;;;16.23;11.88;;;10.50;99.90;;;;;;5012736;28;20674;-84
2023/04/29 07:48:05;;;;;;;18.77;12.27;;;10.60;99.90;;;;;;5012999;28;20179;-82
2023/04/29 07:50:34;;;;;;;15.10;10.73;;;10.70;99.90;;;;;;5012877;28;20175;-83
2023/04/29 07:53:01;;;;;;;15.80;11.20;;;10.80;99.90;;;;;;5013813;28;20329;-83
2023/04/29 07:55:28;;;;;;;13.60;11.00;;;10.90;99.90;;;;;;5014024;28;20194;-83
2023/04/29 07:57:59;;;;;;;19.38;11.27;;;10.90;99.90;;;;;;5012341;28;20595;-83
2023/04/29 08:00:27;;;;;;;19.02;11.38;;;10.80;99.90;;;;;;5012781;28;20637;-83
2023/04/29 08:02:54;;;;;;;17.52;11.82;;;10.90;99.90;;;;;;5012671;28;20194;-86
2023/04/29 08:05:21;;;;;;;15.07;11.23;;;10.90;99.90;;;;;;5012422;28;20219;-84
2023/04/29 08:07:51;;;;;;;16.95;12.05;;;10.90;99.90;;;;;;5014151;28;20197;-82
2023/04/29 08:10:18;;;;;;;17.00;11.60;;;10.90;99.90;;;;;;5016577;28;20688;-84
2023/04/29 08:12:47;;;;;;;14.23;10.90;;;10.80;99.90;;;;;;5016139;28;20171;-83
2023/04/29 08:15:13;;;;;;;14.02;11.25;;;10.80;99.90;;;;;;5016890;28;20183;-85
2023/04/29 08:17:39;;;;;;;18.27;11.77;;;10.90;99.90;;;;;;5016659;28;20317;-84
2023/04/29 08:20:06;;;;;;;14.35;10.55;;;11.00;99.90;;;;;;5016491;28;20179;-84
2023/04/29 08:22:32;;;;;;;13.55;10.35;;;11.10;99.90;;;;;;5015471;28;20195;-84
2023/04/29 08:25:00;;;;;;;14.18;10.25;;;11.20;99.90;;;;;;5016696;28;20222;-84
2023/04/29 08:27:25;;;;;;;10.75;9.35;;;11.30;99.90;;;;;;5015715;28;20194;-84
2023/04/29 08:29:51;;;;;;;11.70;9.20;;;11.40;99.90;;;;;;5017405;28;20602;-84
2023/04/29 08:32:17;;;;;;;12.35;9.43;;;11.50;99.90;;;;;;5016429;28;20694;-83
2023/04/29 08:34:43;;;;;;;13.45;8.85;;;11.60;99.90;;;;;;5015256;28;20190;-84
2023/04/29 08:37:09;;;;;;;10.73;8.02;;;11.80;99.90;;;;;;5017297;28;20186;-86
2023/04/29 08:39:36;;;;;;;14.57;8.55;;;12.10;99.90;;;;;;5016380;28;20176;-84
2023/04/29 08:42:09;;;;;;;11.38;7.57;;;12.30;99.90;;;;;;5015757;28;20270;-85
2023/04/29 08:44:35;;;;;;;9.38;6.90;;;12.40;99.90;;;;;;5017396;28;20737;-84
2023/04/29 08:47:02;;;;;;;10.10;7.78;;;12.30;99.90;;;;;;5017290;28;20504;-85
2023/04/29 08:49:29;;;;;;;8.02;6.20;;;12.30;99.90;;;;;;5013597;28;20278;-83
2023/04/29 08:51:55;;;;;;;8.18;6.25;;;12.20;99.90;;;;;;5015289;28;20186;-84
2023/04/29 08:54:20;;;;;;;11.52;6.55;;;12.20;99.90;;;;;;5015467;28;20231;-84
2023/04/29 08:56:47;;;;;;;10.70;6.30;;;12.20;99.90;;;;;;5014224;28;20190;-83
2023/04/29 08:59:15;;;;;;;10.13;6.78;;;12.30;99.90;;;;;;5014096;28;20561;-84
2023/04/29 09:01:43;;;;;;;8.50;6.55;;;12.20;99.90;;;;;;5015629;28;20160;-83
2023/04/29 09:04:19;;;;;;;10.07;6.80;;;12.20;99.90;;;;;;5016624;28;20630;-85
2023/04/29 09:06:47;;;;;;;8.88;7.10;;;12.30;99.90;;;;;;5016593;28;20164;-82
2023/04/29 09:09:14;;;;;;;9.27;7.22;;;12.10;99.90;;;;;;5015756;28;20187;-84
2023/04/29 09:11:40;;;;;;;8.38;6.90;;;12.10;99.90;;;;;;5015613;28;20175;-84
2023/04/29 09:14:07;;;;;;;8.27;6.03;;;12.20;99.90;;;;;;5015435;28;20501;-84
2023/04/29 09:16:34;;;;;;;9.98;6.50;;;12.30;99.90;;;;;;5016788;28;20187;-84
2023/04/29 09:19:00;;;;;;;10.68;6.70;;;12.40;99.90;;;;;;5014367;28;20221;-85
2023/04/29 09:21:27;;;;;;;10.68;7.13;;;12.50;99.90;;;;;;5016692;28;20168;-85
2023/04/29 09:23:56;;;;;;;7.45;6.20;;;12.60;99.90;;;;;;5015508;28;20222;-85
2023/04/29 09:26:23;;;;;;;7.20;6.10;;;12.60;99.90;;;;;;5015545;28;20652;-85
2023/04/29 09:29:10;;;;;;;8.07;6.03;;;12.80;99.90;;;;;;5015273;28;20179;-84
2023/04/29 09:31:38;;;;;;;9.02;6.22;;;12.80;99.90;;;;;;5015241;28;20171;-85
2023/04/29 09:34:05;;;;;;;8.23;6.55;;;13.00;99.90;;;;;;5016460;28;20179;-86
2023/04/29 09:36:44;;;;;;;10.20;5.97;;;13.10;99.90;;;;;;5016566;28;20241;-84
2023/04/29 09:39:15;;;;;;;7.82;6.35;;;13.10;99.90;;;;;;5015176;28;20246;-84
2023/04/29 09:41:51;;;;;;;8.75;5.80;;;13.30;99.90;;;;;;5014843;28;20171;-84
2023/04/29 09:44:17;;;;;;;8.73;5.95;;;13.30;99.90;;;;;;5015000;28;20210;-87
2023/04/29 09:46:53;;;;;;;8.95;5.82;;;13.50;99.90;;;;;;5015267;28;20183;-86
2023/04/29 09:49:28;;;;;;;8.32;5.95;;;13.50;99.90;;;;;;5015090;28;20179;-85
2023/04/29 09:51:55;;;;;;;6.93;6.22;;;13.60;99.90;;;;;;5014581;28;20186;-84
2023/04/29 09:54:23;;;;;;;6.82;5.80;;;13.80;99.90;;;;;;5014520;28;20325;-85
2023/04/29 09:56:51;;;;;;;8.32;5.80;;;14.00;99.90;;;;;;5014399;28;20623;-85
2023/04/29 09:59:21;;;;;;;11.45;5.78;;;14.10;99.90;;;;;;5016142;28;20171;-84
2023/04/29 10:01:49;;;;;;;9.95;5.45;;;14.20;99.90;;;;;;5015114;28;20172;-85
2023/04/29 10:04:16;;;;;;;7.63;5.38;;;14.40;99.90;;;;;;5015981;28;20195;-87
2023/04/29 10:06:44;;;;;;;8.85;5.22;;;14.70;99.90;;;;;;5014725;28;20309;-85
2023/04/29 10:09:16;;;;;;;9.88;4.97;;;14.80;99.90;;;;;;5014397;28;20178;-84
2023/04/29 10:11:47;;;;;;;7.47;4.85;;;14.70;99.90;;;;;;5014322;28;20179;-85
2023/04/29 10:14:21;;;;;;;7.78;4.88;;;14.60;99.90;;;;;;5014792;28;20187;-86
2023/04/29 10:17:15;;;;;;;8.23;4.40;;;14.70;99.90;;;;;;5014625;28;20175;-84
2023/04/29 10:20:08;;;;;;;14.93;5.43;;;14.90;99.90;;;;;;5014435;28;20176;-84
2023/04/29 10:22:47;;;;;;;6.07;4.40;;;15.10;99.90;;;;;;5014261;28;20230;-84
2023/04/29 10:25:18;;;;;;;10.45;4.47;;;15.00;99.90;;;;;;5014099;28;20537;-86
2023/04/29 10:27:45;;;;;;;6.90;4.57;;;14.80;99.90;;;;;;5013795;28;20171;-84
2023/04/29 10:30:13;;;;;;;10.45;4.20;;;14.60;99.90;;;;;;5013612;28;20184;-83
2023/04/29 10:32:43;;;;;;;6.55;4.13;;;14.60;99.90;;;;;;5015105;28;20225;-85
2023/04/29 10:35:11;;;;;;;6.82;4.38;;;14.40;99.90;;;;;;5012701;28;20237;-85
2023/04/29 10:37:37;;;;;;;5.60;4.38;;;14.30;99.90;;;;;;5013053;28;20187;-83
2023/04/29 10:40:41;;;;;;;5.53;3.45;;;14.20;99.90;;;;;;5014835;28;20262;-85
2023/04/29 10:43:07;;;;;;;7.38;4.10;;;14.10;99.90;;;;;;5011096;28;20191;-85
2023/04/29 10:45:35;;;;;;;4.93;3.95;;;14.10;99.90;;;;;;5013831;28;20226;-84
2023/04/29 10:48:05;;;;;;;6.00;4.15;;;14.10;99.90;;;;;;5014062;28;20175;-87
2023/04/29 10:51:00;;;;;;;7.15;4.30;;;14.20;99.90;;;;;;5013978;28;20183;-86
2023/04/29 10:53:27;;;;;;;7.13;5.07;;;14.60;99.90;;;;;;5013689;28;20265;-85
2023/04/29 10:55:58;;;;;;;10.02;4.80;;;14.80;99.90;;;;;;5015090;28;20179;-85
2023/04/29 10:58:35;;;;;;;6.53;4.53;;;14.70;99.90;;;;;;5014685;28;20171;-84
2023/04/29 11:01:01;;;;;;;5.80;4.32;;;14.60;99.90;;;;;;5013967;28;20181;-87
2023/04/29 11:03:56;;;;;;;7.07;4.03;;;14.40;99.90;;;;;;5013264;28;20207;-86
2023/04/29 11:06:24;;;;;;;7.80;4.63;;;14.30;99.90;;;;;;5013833;28;20190;-85
2023/04/29 11:09:14;;;;;;;6.00;4.30;;;14.30;99.90;;;;;;5013957;28;20171;-84
2023/04/29 11:11:45;;;;;;;12.38;4.00;;;14.60;99.90;;;;;;5013401;28;20175;-84
2023/04/29 11:14:14;;;;;;;7.13;4.00;;;14.80;99.90;;;;;;5011830;28;20194;-85
2023/04/29 11:16:49;;;;;;;5.35;3.80;;;14.80;99.90;;;;;;4999074;28;20614;-85
2023/04/29 11:19:16;;;;;;;5.68;4.47;;;15.00;99.90;;;;;;5009381;28;20209;-84
2023/04/29 11:21:44;;;;;;;5.57;4.00;;;15.10;99.90;;;;;;5014067;28;20171;-84
2023/04/29 11:24:11;;;;;;;6.47;4.43;;;15.10;99.90;;;;;;5014029;28;20261;-84
2023/04/29 11:26:37;;;;;;;7.15;4.20;;;15.10;99.90;;;;;;5010093;28;20568;-84
2023/04/29 11:29:10;;;;;;;5.72;3.85;;;15.00;99.90;;;;;;5014010;28;20179;-85
2023/04/29 11:31:40;;;;;;;4.38;3.55;;;15.20;99.90;;;;;;5000661;28;20184;-85
2023/04/29 11:34:06;;;;;;;9.07;3.70;;;15.60;99.90;;;;;;4993011;28;20176;-84
2023/04/29 11:36:33;;;;;;;6.35;3.75;;;15.90;99.90;;;;;;4994544;28;20266;-83
2023/04/29 11:39:00;;;;;;;10.63;4.25;;;16.00;99.90;;;;;;4995627;28;20194;-85
2023/04/29 11:41:26;;;;;;;9.45;3.95;;;16.20;99.90;;;;;;5004828;28;20198;-84
2023/04/29 11:43:59;;;;;;;6.65;3.97;;;16.00;99.90;;;;;;5010891;28;20234;-84
2023/04/29 11:46:25;;;;;;;7.88;4.18;;;15.60;99.90;;;;;;5012178;28;20265;-84
2023/04/29 11:48:51;;;;;;;7.20;4.05;;;15.40;99.90;;;;;;5012415;28;20183;-83
2023/04/29 11:51:18;;;;;;;5.03;3.90;;;15.10;99.90;;;;;;5013512;28;20267;-84
2023/04/29 11:53:44;;;;;;;7.40;3.92;;;14.90;99.90;;;;;;5012341;28;20231;-84
2023/04/29 11:56:10;;;;;;;6.05;3.92;;;14.80;99.90;;;;;;5012957;28;20187;-84
2023/04/29 11:58:38;;;;;;;8.13;3.70;;;14.70;99.90;;;;;;5012441;28;20682;-84
2023/04/29 12:01:04;;;;;;;7.18;4.18;;;14.70;99.90;;;;;;5011279;28;20198;-83
2023/04/29 12:03:32;;;;;;;4.63;3.67;;;14.60;99.90;;;;;;5013161;28;20198;-85
2023/04/29 12:06:00;;;;;;;8.13;3.58;;;14.90;99.90;;;;;;5013159;28;20556;-84
2023/04/29 12:08:28;;;;;;;7.88;3.97;;;15.40;99.90;;;;;;5012300;28;20186;-83
2023/04/29 12:10:57;;;;;;;5.43;3.47;;;16.00;99.90;;;;;;5013283;28;20636;-84
2023/04/29 12:13:27;;;;;;;7.93;3.65;;;16.10;99.90;;;;;;5013542;28;20167;-86
2023/04/29 12:15:53;;;;;;;4.22;3.05;;;16.00;98.70;;;;;;5012666;28;20187;-84
2023/04/29 12:18:22;;;;;;;7.30;3.25;;;15.80;99.50;;;;;;5012553;28;20233;-84
2023/04/29 12:20:50;;;;;;;6.03;3.22;;;15.60;99.90;;;;;;5012362;28;20272;-84
2023/04/29 12:23:22;;;;;;;6.55;3.00;;;15.40;99.40;;;;;;5013439;28;20240;-85
2023/04/29 12:25:52;;;;;;;6.60;3.42;;;15.30;99.90;;;;;;5012449;28;20183;-84
2023/04/29 12:28:19;;;;;;;7.45;3.10;;;15.20;99.20;;;;;;5011946;28;20233;-84
2023/04/29 12:30:50;;;;;;;4.38;3.22;;;15.10;99.90;;;;;;5012197;28;20180;-83
2023/04/29 12:33:20;;;;;;;5.75;3.33;;;15.20;99.90;;;;;;5012200;28;20688;-85
2023/04/29 12:35:50;;;;;;;4.22;3.00;;;15.50;98.70;;;;;;5012193;28;20179;-84
2023/04/29 12:38:26;;;;;;;6.90;3.40;;;15.60;99.00;;;;;;5013321;28;20171;-84
2023/04/29 12:40:54;;;;;;;6.25;2.70;;;15.90;99.90;;;;;;5011559;28;20233;-84